Time;durP1;ratioP1;P1;durP2;ratioP2;P2;SDS_P1;SDS_P2;PMS_P1;PMS_P2;Temp;Humidity;BMP_temperature;BMP_pressure;BME280_temperature;BME280_humidity;BME280_pressure;Samples;Min_cycle;Max_cycle;Signal;HPM_P1;HPM_P2
2023/01/14 00:01:11;;;;;;;32.63;18.83;;;26.70;99.90;;;;;;5013577;28;20033;-67
2023/01/14 00:03:38;;;;;;;39.03;22.33;;;26.70;99.90;;;;;;5013157;28;20101;-66
2023/01/14 00:06:06;;;;;;;50.72;28.05;;;26.60;99.90;;;;;;5013454;28;20029;-66
2023/01/14 00:08:32;;;;;;;60.53;33.03;;;26.60;99.90;;;;;;5013466;28;20026;-67
2023/01/14 00:11:06;;;;;;;68.95;33.08;;;26.60;99.90;;;;;;5013289;28;20038;-66
2023/01/14 00:13:35;;;;;;;83.63;30.83;;;26.50;99.90;;;;;;5013479;28;20439;-66
2023/01/14 00:16:03;;;;;;;62.00;31.48;;;26.50;99.90;;;;;;5013461;28;20029;-66
2023/01/14 00:18:32;;;;;;;57.08;28.13;;;26.50;99.90;;;;;;5013145;28;20026;-66
2023/01/14 00:21:05;;;;;;;44.72;25.70;;;26.50;99.90;;;;;;5013252;28;20060;-67
2023/01/14 00:23:34;;;;;;;184.98;125.97;;;26.40;99.90;;;;;;5013136;28;20018;-65
2023/01/14 00:26:03;;;;;;;105.15;78.05;;;26.40;99.90;;;;;;5013253;28;20041;-67
2023/01/14 00:28:30;;;;;;;45.17;31.38;;;26.40;99.90;;;;;;5014653;28;20446;-67
2023/01/14 00:31:01;;;;;;;46.97;29.77;;;26.30;99.90;;;;;;5017004;28;20109;-66
2023/01/14 00:33:27;;;;;;;33.97;21.70;;;26.30;99.90;;;;;;5017113;28;20467;-68
2023/01/14 00:35:54;;;;;;;39.70;23.73;;;26.30;99.90;;;;;;5017054;28;20057;-67
2023/01/14 00:38:21;;;;;;;26.27;16.85;;;26.40;99.90;;;;;;5016715;28;20041;-67
2023/01/14 00:40:47;;;;;;;31.17;15.95;;;26.30;99.90;;;;;;5016791;28;20030;-68
2023/01/14 00:43:14;;;;;;;25.80;15.45;;;26.30;99.90;;;;;;5017070;28;20018;-68
2023/01/14 00:45:40;;;;;;;24.83;15.82;;;26.40;99.90;;;;;;5016791;28;20045;-66
2023/01/14 00:48:07;;;;;;;30.52;19.38;;;26.40;99.90;;;;;;5016947;28;20025;-68
2023/01/14 00:50:33;;;;;;;44.70;24.55;;;26.30;99.90;;;;;;5018219;28;20104;-68
2023/01/14 00:53:00;;;;;;;41.83;26.27;;;26.30;99.90;;;;;;5027626;28;20026;-66
2023/01/14 00:55:26;;;;;;;55.65;34.80;;;26.20;99.90;;;;;;5016926;28;20104;-68
2023/01/14 00:57:53;;;;;;;40.28;27.85;;;26.20;99.90;;;;;;5016653;28;20030;-68
2023/01/14 01:00:20;;;;;;;46.67;31.38;;;26.10;99.90;;;;;;5016735;28;20476;-69
2023/01/14 01:02:46;;;;;;;39.85;26.73;;;26.10;99.90;;;;;;5016488;28;20026;-68
2023/01/14 01:05:13;;;;;;;37.45;23.88;;;26.10;99.90;;;;;;5026475;28;20049;-68
2023/01/14 01:07:40;;;;;;;31.27;22.52;;;26.10;99.90;;;;;;5023449;28;20033;-67
2023/01/14 01:10:07;;;;;;;33.03;16.73;;;26.00;99.90;;;;;;5035875;28;20033;-68
2023/01/14 01:12:34;;;;;;;28.40;14.80;;;26.00;99.90;;;;;;5036457;28;20025;-67
2023/01/14 01:15:00;;;;;;;23.40;14.25;;;25.90;99.90;;;;;;5036325;28;20029;-69
2023/01/14 01:17:28;;;;;;;18.83;13.48;;;25.90;99.90;;;;;;5036050;28;20036;-67
2023/01/14 01:19:55;;;;;;;25.98;15.15;;;25.90;99.90;;;;;;5035890;28;20021;-67
2023/01/14 01:22:21;;;;;;;23.52;15.00;;;25.90;99.90;;;;;;5029637;28;20535;-68
2023/01/14 01:24:50;;;;;;;27.98;14.18;;;25.90;99.90;;;;;;5029086;28;20017;-67
2023/01/14 01:27:17;;;;;;;26.02;16.65;;;26.00;99.90;;;;;;5016618;28;20467;-68
2023/01/14 01:29:43;;;;;;;22.33;13.95;;;26.10;99.90;;;;;;5016012;28;20474;-68
2023/01/14 01:32:10;;;;;;;25.42;19.70;;;26.30;99.90;;;;;;5015965;28;20372;-68
2023/01/14 01:34:36;;;;;;;23.75;15.73;;;26.30;99.90;;;;;;5015924;28;20026;-68
2023/01/14 01:37:03;;;;;;;28.05;15.73;;;26.50;99.90;;;;;;5015944;28;20034;-68
2023/01/14 01:39:29;;;;;;;22.02;15.27;;;26.60;99.90;;;;;;5014958;28;20050;-68
2023/01/14 01:41:56;;;;;;;20.08;14.85;;;26.60;99.90;;;;;;5015801;28;20056;-69
2023/01/14 01:44:22;;;;;;;15.75;12.30;;;26.70;99.90;;;;;;5015838;28;20018;-69
2023/01/14 01:46:49;;;;;;;20.35;13.07;;;26.80;99.90;;;;;;5015624;28;20022;-69
2023/01/14 01:49:20;;;;;;;21.10;11.43;;;27.00;99.90;;;;;;5015759;28;20439;-68
2023/01/14 01:51:52;;;;;;;14.43;10.32;;;27.00;99.90;;;;;;5015651;28;20080;-69
2023/01/14 01:54:23;;;;;;;18.45;11.80;;;27.00;99.90;;;;;;5022005;28;20037;-69
2023/01/14 01:56:50;;;;;;;14.38;10.15;;;27.20;99.90;;;;;;5019467;28;20364;-69
2023/01/14 01:59:21;;;;;;;13.73;10.52;;;27.20;99.90;;;;;;5015556;28;20033;-69
2023/01/14 02:01:49;;;;;;;15.77;9.05;;;27.30;99.90;;;;;;5015571;28;20048;-69
2023/01/14 02:04:16;;;;;;;15.70;10.05;;;27.30;99.90;;;;;;5015507;28;20030;-69
2023/01/14 02:06:42;;;;;;;17.42;11.20;;;27.40;99.90;;;;;;5015317;28;20022;-68
2023/01/14 02:09:10;;;;;;;13.55;10.60;;;27.50;99.90;;;;;;5015450;28;20655;-69
2023/01/14 02:11:47;;;;;;;13.27;10.10;;;27.50;99.90;;;;;;5015244;28;20018;-68
2023/01/14 02:14:32;;;;;;;15.77;10.07;;;27.60;99.90;;;;;;5015076;28;20109;-69
2023/01/14 02:17:04;;;;;;;16.55;8.90;;;27.70;99.90;;;;;;5020608;28;20033;-68
2023/01/14 02:19:35;;;;;;;13.70;9.20;;;27.80;99.90;;;;;;5019498;28;20053;-69
2023/01/14 02:22:13;;;;;;;12.85;9.07;;;27.90;99.90;;;;;;5015007;28;20022;-70
2023/01/14 02:25:02;;;;;;;14.40;8.20;;;27.90;99.90;;;;;;5014873;28;20099;-70
2023/01/14 02:27:32;;;;;;;10.52;8.27;;;27.90;99.90;;;;;;5002270;28;20034;-70
2023/01/14 02:30:06;;;;;;;10.38;8.80;;;28.00;99.90;;;;;;5014705;28;20387;-69
2023/01/14 02:32:39;;;;;;;9.18;8.00;;;28.00;99.90;;;;;;5014791;28;20477;-71
2023/01/14 02:35:17;;;;;;;9.73;8.32;;;28.10;99.90;;;;;;5015080;28;20471;-69
2023/01/14 02:37:53;;;;;;;10.27;8.52;;;28.10;99.90;;;;;;5014731;28;20080;-71
2023/01/14 02:40:25;;;;;;;10.55;7.10;;;28.10;99.90;;;;;;5014411;28;20069;-69
2023/01/14 02:45:46;;;;;;;9.13;7.80;;;28.20;99.90;;;;;;5010496;28;20030;-69
2023/01/14 02:48:15;;;;;;;8.45;7.35;;;28.20;99.90;;;;;;5023344;28;20026;-70
2023/01/14 02:50:42;;;;;;;10.30;8.25;;;28.30;99.90;;;;;;5033522;28;20029;-71
2023/01/14 02:53:16;;;;;;;11.48;8.20;;;28.50;99.90;;;;;;5033683;28;20021;-71
2023/01/14 02:55:42;;;;;;;12.77;10.95;;;28.50;99.90;;;;;;5033975;28;20051;-71
2023/01/14 02:58:18;;;;;;;11.90;9.25;;;28.60;99.90;;;;;;5034094;28;20029;-71
2023/01/14 03:00:49;;;;;;;11.88;9.50;;;28.60;99.90;;;;;;5033831;28;20120;-71
2023/01/14 03:03:38;;;;;;;14.05;10.15;;;28.70;99.90;;;;;;5033934;28;20053;-70
2023/01/14 03:06:08;;;;;;;12.00;8.98;;;28.70;99.90;;;;;;5029312;28;20033;-71
2023/01/14 03:08:43;;;;;;;15.23;10.13;;;28.80;99.90;;;;;;5033926;28;20029;-72
2023/01/14 03:11:10;;;;;;;11.88;8.93;;;28.90;99.90;;;;;;5033786;28;20026;-72
2023/01/14 03:13:44;;;;;;;12.77;10.13;;;28.90;99.90;;;;;;5033879;28;20018;-72
2023/01/14 03:16:19;;;;;;;11.05;9.68;;;29.00;99.90;;;;;;5033715;28;20466;-69
2023/01/14 03:18:55;;;;;;;13.32;9.23;;;29.10;99.90;;;;;;5033597;28;20034;-71
2023/01/14 03:21:26;;;;;;;14.90;9.52;;;29.20;99.90;;;;;;5033728;28;20036;-70
2023/01/14 03:24:16;;;;;;;12.60;10.70;;;29.20;99.90;;;;;;5033572;28;20025;-72
2023/01/14 03:26:47;;;;;;;16.33;11.43;;;29.30;99.90;;;;;;5018827;28;20033;-69
2023/01/14 03:29:19;;;;;;;15.95;13.75;;;29.40;99.90;;;;;;5033555;28;20022;-69
2023/01/14 03:31:53;;;;;;;12.43;11.13;;;29.50;99.90;;;;;;5025935;28;20598;-71
2023/01/14 03:34:26;;;;;;;32.40;25.85;;;29.60;99.90;;;;;;5013652;28;20530;-70
2023/01/14 03:36:56;;;;;;;20.48;15.82;;;29.60;99.90;;;;;;5013754;28;20423;-68
2023/01/14 03:39:26;;;;;;;12.90;10.20;;;29.70;99.90;;;;;;5013407;28;20049;-71
2023/01/14 03:44:37;;;;;;;11.30;9.63;;;29.80;99.90;;;;;;5014012;28;20018;-71
2023/01/14 03:47:05;;;;;;;11.60;10.32;;;30.00;99.90;;;;;;5013618;28;20076;-72
2023/01/14 03:49:31;;;;;;;11.05;9.73;;;30.20;99.90;;;;;;5013921;28;20030;-71
2023/01/14 03:52:02;;;;;;;15.27;9.98;;;30.20;99.90;;;;;;5013457;28;20026;-70
2023/01/14 03:54:33;;;;;;;12.35;10.43;;;30.20;99.90;;;;;;5013818;28;20030;-70
2023/01/14 03:57:11;;;;;;;12.73;11.18;;;30.10;99.90;;;;;;5013446;28;20030;-71
2023/01/14 03:59:58;;;;;;;18.58;10.88;;;30.10;99.90;;;;;;5013911;28;20018;-69
2023/01/14 04:02:26;;;;;;;15.15;13.02;;;30.10;99.90;;;;;;5009308;28;20479;-67
2023/01/14 04:04:54;;;;;;;13.35;10.98;;;30.10;99.90;;;;;;5019841;28;20038;-69
2023/01/14 04:07:21;;;;;;;18.65;14.68;;;30.20;99.90;;;;;;5019968;28;20084;-69
2023/01/14 04:09:47;;;;;;;22.75;14.98;;;30.20;99.90;;;;;;5020270;28;20434;-67
2023/01/14 04:12:14;;;;;;;14.38;12.73;;;30.20;99.90;;;;;;5030906;28;20060;-67
2023/01/14 04:17:09;;;;;;;16.50;12.73;;;30.00;99.90;;;;;;5022097;28;20117;-67
2023/01/14 04:19:36;;;;;;;37.72;28.52;;;30.00;99.90;;;;;;5026195;28;20487;-66
2023/01/14 04:22:02;;;;;;;17.42;13.65;;;30.00;99.90;;;;;;5029046;28;20104;-67
2023/01/14 04:24:29;;;;;;;52.13;40.38;;;30.00;99.90;;;;;;5029531;28;20371;-67
2023/01/14 04:26:56;;;;;;;14.27;12.13;;;30.00;99.90;;;;;;5027271;28;20017;-66
2023/01/14 04:29:23;;;;;;;17.70;15.77;;;29.90;99.90;;;;;;5029106;28;20092;-66
2023/01/14 04:31:50;;;;;;;17.80;14.82;;;29.90;99.90;;;;;;5029117;28;20017;-66
2023/01/14 04:34:16;;;;;;;18.73;14.25;;;29.90;99.90;;;;;;5027372;28;20010;-66
2023/01/14 04:36:43;;;;;;;16.88;11.93;;;29.90;99.90;;;;;;5029119;28;20021;-66
2023/01/14 04:39:10;;;;;;;18.20;11.23;;;29.90;99.90;;;;;;5028812;28;20058;-65
2023/01/14 04:44:05;;;;;;;13.25;11.60;;;29.90;99.90;;;;;;5027534;28;20498;-66
2023/01/14 04:46:32;;;;;;;16.63;11.82;;;29.80;99.90;;;;;;5028003;28;20025;-67
2023/01/14 04:48:58;;;;;;;15.80;13.00;;;29.90;99.90;;;;;;5028259;28;20463;-66
2023/01/14 04:51:25;;;;;;;15.68;13.10;;;29.90;99.90;;;;;;5030657;28;20076;-67
2023/01/14 04:53:51;;;;;;;17.50;12.10;;;29.90;99.90;;;;;;5031479;28;20028;-65
2023/01/14 04:56:18;;;;;;;18.42;13.25;;;29.90;99.90;;;;;;5028540;28;20022;-67
2023/01/14 04:58:44;;;;;;;18.80;13.10;;;30.00;99.90;;;;;;5027888;28;20021;-66
2023/01/14 05:01:11;;;;;;;13.77;11.70;;;30.10;99.90;;;;;;5032836;28;20048;-71
2023/01/14 05:03:37;;;;;;;22.95;16.50;;;30.10;99.90;;;;;;5030807;28;20025;-70
2023/01/14 05:06:05;;;;;;;18.30;13.90;;;30.20;99.90;;;;;;5028034;28;20397;-67
2023/01/14 05:08:31;;;;;;;26.13;21.20;;;30.30;99.90;;;;;;5027817;28;20060;-64
2023/01/14 05:10:58;;;;;;;21.30;15.35;;;30.30;99.90;;;;;;5028302;28;20104;-66
2023/01/14 05:13:24;;;;;;;78.45;59.47;;;30.30;99.90;;;;;;5027794;28;20024;-67
2023/01/14 05:15:51;;;;;;;22.33;15.50;;;30.30;99.90;;;;;;5023036;28;20105;-65
2023/01/14 05:18:18;;;;;;;15.63;13.25;;;30.30;99.90;;;;;;5024889;28;20496;-65
2023/01/14 05:20:45;;;;;;;15.98;12.50;;;30.30;99.90;;;;;;5025609;28;20034;-66
2023/01/14 05:23:14;;;;;;;19.08;14.10;;;30.40;99.90;;;;;;5024219;28;20285;-67
2023/01/14 05:25:41;;;;;;;17.92;14.55;;;30.40;99.90;;;;;;5024380;28;20087;-66
2023/01/14 05:28:11;;;;;;;21.23;16.98;;;30.40;99.90;;;;;;5023378;28;20106;-65
2023/01/14 05:30:38;;;;;;;20.45;13.15;;;30.40;99.90;;;;;;5016410;28;20076;-65
2023/01/14 05:33:05;;;;;;;15.25;12.25;;;30.50;99.90;;;;;;5015771;28;20022;-67
2023/01/14 05:35:32;;;;;;;19.23;13.18;;;30.60;99.90;;;;;;5015957;28;20022;-66
2023/01/14 05:37:59;;;;;;;13.27;11.80;;;30.80;99.90;;;;;;5018239;28;20030;-66
2023/01/14 05:40:26;;;;;;;14.32;8.45;;;30.90;99.90;;;;;;5025309;28;20504;-67
2023/01/14 05:47:51;;;;;;;74.00;59.25;;;31.10;99.90;;;;;;5030030;28;20118;-68
2023/01/14 05:50:18;;;;;;;15.32;11.52;;;31.20;99.90;;;;;;5029523;28;20490;-70
2023/01/14 05:52:44;;;;;;;15.20;12.90;;;31.20;99.90;;;;;;5023437;28;20045;-64
2023/01/14 05:55:11;;;;;;;14.80;13.13;;;31.40;99.90;;;;;;5021810;28;20097;-65
2023/01/14 05:57:37;;;;;;;18.40;14.45;;;31.40;99.90;;;;;;5017646;28;20029;-65
2023/01/14 06:00:05;;;;;;;21.05;15.13;;;31.30;99.90;;;;;;5014705;28;20044;-64
2023/01/14 06:07:30;;;;;;;16.23;14.00;;;31.20;99.90;;;;;;5014689;28;20021;-65
2023/01/14 06:09:56;;;;;;;15.55;13.93;;;31.20;99.90;;;;;;5014784;28;20037;-64
2023/01/14 06:14:52;;;;;;;16.77;12.43;;;31.10;99.90;;;;;;5015365;28;20044;-66
2023/01/14 06:17:21;;;;;;;15.85;13.75;;;31.10;99.90;;;;;;5020497;28;20109;-66
2023/01/14 06:19:47;;;;;;;17.88;14.63;;;31.00;99.90;;;;;;5026540;28;20037;-67
2023/01/14 06:22:14;;;;;;;15.98;13.90;;;31.10;99.90;;;;;;5025678;28;20553;-67
2023/01/14 06:24:40;;;;;;;17.02;14.52;;;31.20;99.90;;;;;;5026873;28;20628;-66
2023/01/14 06:27:07;;;;;;;18.52;14.55;;;31.30;99.90;;;;;;5028310;28;20024;-68
2023/01/14 06:29:33;;;;;;;31.02;16.45;;;31.40;99.90;;;;;;5024255;28;20045;-66
2023/01/14 06:32:00;;;;;;;20.02;16.23;;;31.40;99.90;;;;;;5023024;28;20057;-65
2023/01/14 06:34:27;;;;;;;18.85;16.17;;;31.50;99.90;;;;;;5023346;28;20018;-66
2023/01/14 06:36:53;;;;;;;16.92;15.07;;;31.50;99.90;;;;;;5023827;28;20060;-65
2023/01/14 06:39:20;;;;;;;17.52;15.57;;;31.60;99.90;;;;;;5022040;28;20475;-66
2023/01/14 06:41:47;;;;;;;23.92;16.52;;;31.50;99.90;;;;;;5021895;28;20475;-66
2023/01/14 06:44:13;;;;;;;16.40;14.25;;;31.60;99.90;;;;;;5022697;28;20018;-65
2023/01/14 06:46:40;;;;;;;24.42;14.93;;;31.70;99.90;;;;;;5022633;28;20023;-66
2023/01/14 06:49:08;;;;;;;14.52;13.02;;;31.60;99.90;;;;;;5022128;28;20659;-65
2023/01/14 06:51:34;;;;;;;16.60;14.02;;;31.50;99.90;;;;;;5025171;28;20024;-62
2023/01/14 06:54:01;;;;;;;15.75;13.98;;;31.50;99.90;;;;;;5021308;28;20034;-65
2023/01/14 06:56:27;;;;;;;20.40;16.00;;;31.50;99.90;;;;;;5020852;28;20030;-64
2023/01/14 06:58:54;;;;;;;19.23;14.90;;;31.50;99.90;;;;;;5021872;28;20021;-65
2023/01/14 07:01:21;;;;;;;19.80;15.23;;;31.50;99.90;;;;;;5021887;28;20021;-65
2023/01/14 07:03:48;;;;;;;17.42;13.90;;;31.70;99.90;;;;;;5023487;28;20022;-64
2023/01/14 07:06:14;;;;;;;19.95;14.85;;;31.80;99.90;;;;;;5020913;28;20101;-64
2023/01/14 07:08:41;;;;;;;20.05;14.98;;;31.80;99.90;;;;;;5022074;28;20061;-64
2023/01/14 07:11:07;;;;;;;19.10;14.20;;;31.80;99.90;;;;;;5017046;28;20061;-64
2023/01/14 07:13:34;;;;;;;20.90;14.90;;;31.90;99.90;;;;;;5014858;28;20022;-64
2023/01/14 07:16:01;;;;;;;39.13;27.90;;;31.90;99.90;;;;;;5014778;28;20034;-63
2023/01/14 07:18:27;;;;;;;27.20;20.95;;;31.90;99.90;;;;;;5028166;28;20025;-63
2023/01/14 07:20:57;;;;;;;18.75;16.05;;;32.00;99.90;;;;;;5027882;28;20059;-64
2023/01/14 07:23:24;;;;;;;22.40;18.20;;;32.00;99.90;;;;;;5025079;28;20021;-64
2023/01/14 07:25:55;;;;;;;20.55;15.95;;;32.00;99.90;;;;;;5023786;28;20050;-64
2023/01/14 07:28:23;;;;;;;20.65;16.88;;;32.00;99.90;;;;;;5025106;28;20231;-65
2023/01/14 07:30:51;;;;;;;20.73;18.00;;;32.10;99.90;;;;;;5026255;28;20036;-64
2023/01/14 07:33:18;;;;;;;24.17;18.75;;;32.10;99.90;;;;;;5024693;28;20025;-64
2023/01/14 07:35:45;;;;;;;19.05;17.05;;;32.10;99.90;;;;;;5024511;28;20069;-64
2023/01/14 07:38:11;;;;;;;21.00;18.35;;;32.00;99.90;;;;;;5024081;28;20025;-64
2023/01/14 07:40:38;;;;;;;23.27;19.60;;;32.10;99.90;;;;;;5023185;28;20025;-65
2023/01/14 07:43:04;;;;;;;23.17;19.38;;;32.10;99.90;;;;;;5022582;28;20421;-66
2023/01/14 07:45:31;;;;;;;24.23;20.20;;;32.20;99.90;;;;;;5023128;28;20049;-65
2023/01/14 07:47:57;;;;;;;26.05;19.80;;;32.10;99.90;;;;;;5029056;28;20013;-67
2023/01/14 07:50:24;;;;;;;23.80;19.17;;;32.20;99.90;;;;;;5023123;28;20018;-66
2023/01/14 07:52:57;;;;;;;18.52;15.63;;;32.10;99.90;;;;;;5022173;28;20083;-66
2023/01/14 07:55:25;;;;;;;19.55;15.45;;;32.10;99.90;;;;;;5023479;28;20096;-66
2023/01/14 07:57:51;;;;;;;19.80;15.93;;;32.20;99.90;;;;;;5033526;28;20037;-66
2023/01/14 08:00:18;;;;;;;17.92;15.02;;;32.10;99.90;;;;;;5033400;28;20017;-67
2023/01/14 08:02:45;;;;;;;15.45;13.75;;;32.10;99.90;;;;;;5033502;28;20026;-65
2023/01/14 08:05:12;;;;;;;17.85;15.07;;;32.10;99.90;;;;;;5033544;28;20026;-66
2023/01/14 08:07:39;;;;;;;20.40;13.77;;;32.10;99.90;;;;;;5027484;28;20104;-65
2023/01/14 08:10:06;;;;;;;16.42;13.45;;;32.20;99.90;;;;;;5033325;28;20391;-65
2023/01/14 08:12:33;;;;;;;17.20;13.73;;;32.10;99.90;;;;;;5020983;28;20101;-64
2023/01/14 08:15:00;;;;;;;18.27;15.00;;;32.20;99.90;;;;;;5013554;28;20026;-63
2023/01/14 08:17:27;;;;;;;21.05;17.17;;;32.20;99.90;;;;;;5016394;28;20100;-65
2023/01/14 08:19:54;;;;;;;16.08;14.07;;;32.30;99.90;;;;;;5028950;28;20381;-65
2023/01/14 08:22:21;;;;;;;24.00;18.67;;;32.30;99.90;;;;;;5033263;28;20471;-64
2023/01/14 08:24:47;;;;;;;17.75;14.07;;;32.30;99.90;;;;;;5018421;28;20026;-65
2023/01/14 08:27:14;;;;;;;17.48;14.15;;;32.40;99.90;;;;;;5013654;28;20042;-65
2023/01/14 08:29:40;;;;;;;17.35;13.90;;;32.40;99.90;;;;;;5013446;28;20018;-64
2023/01/14 08:32:07;;;;;;;16.83;13.48;;;32.40;99.90;;;;;;5013226;28;20487;-64
2023/01/14 08:34:33;;;;;;;22.40;14.27;;;32.40;99.90;;;;;;5013243;28;20472;-64
2023/01/14 08:37:00;;;;;;;16.80;14.35;;;32.40;99.90;;;;;;5013279;28;20080;-64
2023/01/14 08:39:26;;;;;;;15.80;13.30;;;32.40;99.90;;;;;;5013110;28;20045;-64
2023/01/14 08:41:53;;;;;;;16.25;13.60;;;32.40;99.90;;;;;;5013478;28;20026;-64
2023/01/14 08:44:19;;;;;;;18.25;14.07;;;32.50;99.90;;;;;;5013472;28;20022;-65
2023/01/14 08:46:46;;;;;;;34.55;22.65;;;32.50;99.90;;;;;;5013196;28;20025;-65
2023/01/14 08:49:12;;;;;;;18.00;14.43;;;32.50;99.90;;;;;;5032791;28;20053;-66
2023/01/14 08:51:39;;;;;;;17.23;14.35;;;32.50;99.90;;;;;;5036661;28;20104;-66
2023/01/14 08:54:06;;;;;;;16.77;13.43;;;32.40;99.90;;;;;;5036589;28;20041;-65
2023/01/14 08:56:33;;;;;;;17.40;13.23;;;32.40;99.90;;;;;;5036738;28;20025;-65
2023/01/14 08:59:02;;;;;;;19.40;13.45;;;32.40;99.90;;;;;;5036710;28;20017;-66
2023/01/14 09:01:29;;;;;;;50.28;36.33;;;32.40;99.90;;;;;;5036267;28;20029;-65
2023/01/14 09:04:00;;;;;;;29.17;22.80;;;32.40;99.90;;;;;;5036584;28;20108;-65
2023/01/14 09:06:27;;;;;;;22.73;14.75;;;32.40;99.90;;;;;;5036580;28;20036;-64
2023/01/14 09:18:59;;;;;;;16.27;14.40;;;32.50;99.90;;;;;;5031183;28;20021;-65
2023/01/14 09:21:26;;;;;;;18.92;14.75;;;32.50;99.90;;;;;;5029974;28;20036;-65
2023/01/14 09:23:52;;;;;;;16.33;13.43;;;32.50;99.90;;;;;;5016236;28;20076;-65
2023/01/14 09:26:20;;;;;;;17.23;13.95;;;32.50;99.90;;;;;;5016368;28;20026;-64
2023/01/14 09:28:47;;;;;;;17.38;13.23;;;32.50;99.90;;;;;;5016155;28;20124;-64
2023/01/14 09:31:13;;;;;;;20.80;13.95;;;32.50;99.90;;;;;;5016395;28;20101;-65
2023/01/14 09:33:40;;;;;;;16.58;13.63;;;32.50;99.90;;;;;;5016196;28;20072;-64
2023/01/14 09:36:07;;;;;;;19.25;14.20;;;32.50;99.90;;;;;;5016196;28;20045;-65
2023/01/14 09:38:34;;;;;;;14.50;12.95;;;32.50;99.90;;;;;;5015857;28;20077;-65
2023/01/14 09:41:00;;;;;;;16.55;13.55;;;32.50;99.90;;;;;;5015752;28;20030;-64
2023/01/14 09:43:30;;;;;;;16.05;13.05;;;32.50;99.90;;;;;;5015799;28;20377;-63
2023/01/14 09:46:00;;;;;;;48.97;31.05;;;32.50;99.90;;;;;;5018272;28;20112;-65
2023/01/14 09:48:31;;;;;;;38.40;20.65;;;32.50;99.90;;;;;;5024493;28;20338;-65
2023/01/14 09:51:06;;;;;;;23.50;15.55;;;32.50;99.90;;;;;;5015609;28;20029;-65
2023/01/14 09:53:35;;;;;;;20.63;14.60;;;32.50;99.40;;;;;;5015756;28;20049;-64
2023/01/14 09:56:11;;;;;;;21.08;14.30;;;32.40;99.40;;;;;;5015793;28;20030;-64
2023/01/14 09:58:46;;;;;;;21.42;15.43;;;32.40;99.90;;;;;;5015790;28;20105;-64
2023/01/14 10:01:15;;;;;;;17.25;13.85;;;32.40;99.60;;;;;;5015254;28;20026;-64
2023/01/14 10:03:46;;;;;;;16.38;13.45;;;32.40;99.60;;;;;;5015435;28;20072;-64
2023/01/14 10:06:16;;;;;;;16.73;13.88;;;32.40;99.70;;;;;;5015731;28;20475;-65
2023/01/14 10:08:56;;;;;;;23.80;14.15;;;32.30;99.80;;;;;;5015461;28;20137;-64
2023/01/14 10:11:26;;;;;;;24.65;15.35;;;32.30;99.60;;;;;;5015499;28;20034;-64
2023/01/14 10:14:04;;;;;;;28.42;18.70;;;32.30;99.30;;;;;;5015360;28;20025;-63
2023/01/14 10:16:40;;;;;;;28.65;19.98;;;32.20;99.20;;;;;;5015511;28;20054;-63
2023/01/14 10:19:34;;;;;;;26.52;19.48;;;32.20;99.70;;;;;;5027380;28;20034;-64
2023/01/14 10:22:13;;;;;;;43.08;26.73;;;32.20;99.90;;;;;;5026151;28;20080;-66
2023/01/14 10:24:42;;;;;;;46.55;30.48;;;32.20;99.90;;;;;;5023208;28;20045;-68
2023/01/14 10:27:19;;;;;;;148.50;94.07;;;32.20;99.90;;;;;;5023927;28;20084;-70
2023/01/14 10:29:46;;;;;;;88.65;56.42;;;32.20;99.90;;;;;;5023816;28;20413;-70
2023/01/14 10:32:16;;;;;;;91.60;59.83;;;32.10;99.90;;;;;;5023754;28;20033;-70
2023/01/14 10:34:46;;;;;;;82.97;52.22;;;32.10;99.90;;;;;;5025951;28;20032;-70
2023/01/14 10:37:14;;;;;;;76.93;49.33;;;32.10;99.90;;;;;;5027739;28;20030;-70
2023/01/14 10:42:15;;;;;;;101.30;62.42;;;32.10;99.90;;;;;;5023945;28;20026;-67
2023/01/14 10:44:43;;;;;;;57.95;37.63;;;32.10;99.90;;;;;;5022908;28;20049;-70
2023/01/14 10:47:13;;;;;;;84.45;57.35;;;32.10;99.90;;;;;;5024642;28;20071;-70
2023/01/14 10:49:44;;;;;;;43.22;29.00;;;32.10;99.90;;;;;;5014603;28;20191;-69
2023/01/14 10:52:16;;;;;;;72.45;54.45;;;32.00;99.90;;;;;;5014695;28;20100;-69
2023/01/14 10:54:58;;;;;;;57.45;37.35;;;32.00;99.90;;;;;;5014843;28;20026;-69
2023/01/14 10:57:27;;;;;;;45.83;28.25;;;32.00;99.90;;;;;;5014230;28;20034;-70
2023/01/14 10:59:56;;;;;;;40.13;27.08;;;31.90;99.90;;;;;;5014435;28;20022;-69
2023/01/14 11:02:49;;;;;;;38.58;23.45;;;31.90;99.90;;;;;;5014463;28;20037;-71
2023/01/14 11:05:20;;;;;;;43.85;28.52;;;31.90;99.90;;;;;;5014483;28;20135;-69
2023/01/14 11:07:50;;;;;;;64.53;38.45;;;31.90;99.90;;;;;;5014111;28;20022;-65
2023/01/14 11:10:25;;;;;;;101.20;60.83;;;31.80;99.90;;;;;;5014176;28;20033;-66
2023/01/14 11:12:53;;;;;;;179.00;94.90;;;31.80;99.90;;;;;;5013521;28;20501;-65
2023/01/14 11:15:25;;;;;;;321.63;146.65;;;31.70;99.90;;;;;;5014411;28;20022;-65
2023/01/14 11:17:51;;;;;;;381.92;165.55;;;31.70;99.90;;;;;;5014124;28;20037;-66
2023/01/14 11:20:23;;;;;;;284.23;134.75;;;31.70;99.90;;;;;;5013934;28;20032;-64
2023/01/14 11:22:56;;;;;;;164.35;86.40;;;31.60;99.90;;;;;;5013891;28;20487;-66
2023/01/14 11:25:23;;;;;;;124.70;75.88;;;31.60;99.90;;;;;;5028487;28;20034;-65
2023/01/14 11:27:50;;;;;;;133.23;76.35;;;31.60;99.90;;;;;;5033447;28;20033;-66
2023/01/14 11:30:19;;;;;;;124.93;74.82;;;31.60;99.90;;;;;;5031506;28;20047;-65
2023/01/14 11:32:49;;;;;;;104.70;66.30;;;31.60;99.90;;;;;;5023322;28;20102;-68
2023/01/14 11:35:33;;;;;;;95.60;59.35;;;31.60;99.90;;;;;;5024198;28;20069;-67
2023/01/14 11:38:01;;;;;;;112.70;73.13;;;31.60;99.90;;;;;;5019739;28;20026;-67
2023/01/14 11:43:11;;;;;;;127.93;78.20;;;31.50;99.90;;;;;;5018619;28;20075;-65
2023/01/14 11:45:37;;;;;;;111.38;74.22;;;31.50;99.90;;;;;;5029395;28;20093;-65
2023/01/14 11:48:23;;;;;;;105.25;66.85;;;31.40;99.90;;;;;;5032212;28;20075;-64
2023/01/14 11:50:54;;;;;;;111.93;73.57;;;31.40;99.90;;;;;;5029522;28;20234;-65
2023/01/14 11:53:26;;;;;;;148.90;100.32;;;31.40;99.90;;;;;;5022400;28;20017;-65
2023/01/14 11:55:55;;;;;;;178.02;115.85;;;31.30;99.90;;;;;;5023710;28;20026;-63
2023/01/14 11:58:25;;;;;;;236.82;151.07;;;31.30;99.90;;;;;;5025232;28;20105;-64
2023/01/14 12:01:03;;;;;;;329.77;228.95;;;31.30;99.90;;;;;;5023753;28;20034;-63
2023/01/14 12:03:34;;;;;;;168.80;108.40;;;31.20;99.90;;;;;;5023849;28;20026;-65
2023/01/14 12:06:08;;;;;;;132.93;87.80;;;31.20;99.90;;;;;;5024804;28;20450;-65
2023/01/14 12:08:38;;;;;;;138.07;82.95;;;31.30;99.90;;;;;;5028416;28;20269;-63
2023/01/14 12:11:06;;;;;;;110.30;63.40;;;31.20;99.90;;;;;;5014434;28;20418;-64
2023/01/14 12:19:03;;;;;;;77.05;47.13;;;31.10;99.90;;;;;;5022725;28;20032;-65
2023/01/14 12:21:42;;;;;;;77.30;46.40;;;31.10;99.90;;;;;;5023154;28;20022;-64
2023/01/14 12:24:35;;;;;;;366.17;296.02;;;31.10;99.90;;;;;;5020540;28;20032;-65
2023/01/14 12:27:05;;;;;;;90.85;62.55;;;31.00;99.90;;;;;;5025644;28;20084;-65
2023/01/14 12:29:39;;;;;;;122.75;80.72;;;31.10;99.90;;;;;;5030716;28;20032;-64
2023/01/14 12:32:14;;;;;;;139.52;97.22;;;31.00;99.90;;;;;;5026142;28;20483;-61
2023/01/14 12:34:48;;;;;;;159.55;105.25;;;31.00;99.90;;;;;;5027305;28;20029;-63
2023/01/14 12:37:42;;;;;;;95.72;64.68;;;31.00;99.90;;;;;;5026002;28;20022;-67
2023/01/14 12:45:45;;;;;;;94.78;59.95;;;31.00;99.90;;;;;;5026418;28;20393;-65
2023/01/14 12:48:19;;;;;;;93.40;56.92;;;31.00;99.90;;;;;;5020834;28;20030;-64
2023/01/14 12:50:47;;;;;;;92.18;58.70;;;30.90;99.90;;;;;;5026582;28;20537;-64
2023/01/14 12:53:23;;;;;;;87.78;58.88;;;30.90;99.90;;;;;;5025731;28;20543;-66
2023/01/14 12:55:51;;;;;;;96.68;63.45;;;30.90;99.90;;;;;;5025908;28;20022;-64
2023/01/14 12:58:30;;;;;;;113.55;71.88;;;30.80;99.90;;;;;;5024855;28;20155;-65
2023/01/14 13:01:04;;;;;;;105.50;61.92;;;30.90;99.90;;;;;;5025920;28;20379;-65
2023/01/14 13:03:36;;;;;;;105.13;71.28;;;30.80;99.90;;;;;;5026108;28;20014;-65
2023/01/14 13:06:09;;;;;;;160.68;104.57;;;30.80;99.90;;;;;;5030286;28;20049;-64
2023/01/14 13:08:37;;;;;;;185.73;130.82;;;30.80;99.90;;;;;;5025212;28;20013;-65
2023/01/14 13:11:20;;;;;;;127.05;83.75;;;30.80;99.90;;;;;;5024711;28;20022;-65
2023/01/14 13:13:51;;;;;;;110.40;73.90;;;30.80;99.90;;;;;;5031314;28;20426;-65
2023/01/14 13:16:33;;;;;;;100.45;66.07;;;30.80;99.90;;;;;;5027057;28;20168;-65
2023/01/14 13:19:03;;;;;;;110.85;71.10;;;30.80;99.90;;;;;;5029696;28;20056;-64
2023/01/14 13:21:52;;;;;;;123.32;73.65;;;30.80;99.90;;;;;;5026727;28;20022;-66
2023/01/14 13:24:43;;;;;;;135.48;83.50;;;30.90;99.90;;;;;;5016777;28;20087;-65
2023/01/14 13:27:14;;;;;;;141.00;86.00;;;30.80;99.90;;;;;;5017690;28;20475;-63